Time;durP1;ratioP1;P1;durP2;ratioP2;P2;SDS_P1;SDS_P2;PMS_P1;PMS_P2;Temp;Humidity;BMP_temperature;BMP_pressure;BME280_temperature;BME280_humidity;BME280_pressure;Samples;Min_cycle;Max_cycle;Signal;HPM_P1;HPM_P2
2023/02/22 00:03:59;;;;;;;10.43;6.90;;;11.40;82.50;;;;;;4879683;29;20037;-83
2023/02/22 00:06:24;;;;;;;10.07;6.85;;;11.30;82.40;;;;;;4863693;29;20137;-83
2023/02/22 00:08:51;;;;;;;10.35;7.15;;;11.30;83.00;;;;;;4863797;29;20085;-82
2023/02/22 00:11:19;;;;;;;10.13;6.97;;;11.30;82.50;;;;;;4863873;29;20116;-83
2023/02/22 00:13:45;;;;;;;9.55;6.75;;;11.30;82.40;;;;;;4863861;29;20029;-83
2023/02/22 00:16:17;;;;;;;10.25;6.72;;;11.30;82.50;;;;;;4863898;29;20025;-83
2023/02/22 00:18:43;;;;;;;10.82;7.40;;;11.30;82.50;;;;;;4879173;29;20036;-84
2023/02/22 00:21:10;;;;;;;10.75;7.55;;;11.30;82.50;;;;;;4879213;29;20033;-83
2023/02/22 00:23:38;;;;;;;10.23;7.07;;;11.30;82.50;;;;;;4863714;29;20044;-82
2023/02/22 00:26:08;;;;;;;10.90;7.40;;;11.30;82.50;;;;;;4879314;29;20600;-83
2023/02/22 00:28:36;;;;;;;10.25;7.15;;;11.30;82.50;;;;;;4878811;29;20033;-81
2023/02/22 00:31:04;;;;;;;10.18;7.18;;;11.30;82.50;;;;;;4863686;29;20089;-83
2023/02/22 00:33:30;;;;;;;10.95;7.40;;;11.20;82.50;;;;;;4878918;29;20033;-83
2023/02/22 00:35:56;;;;;;;10.00;6.68;;;11.20;82.40;;;;;;4848511;29;20040;-83
2023/02/22 00:38:23;;;;;;;10.82;7.38;;;11.30;82.50;;;;;;4863981;29;20033;-83
2023/02/22 00:40:48;;;;;;;9.88;7.05;;;11.30;82.50;;;;;;4863362;29;20068;-83
2023/02/22 00:43:14;;;;;;;10.98;7.35;;;11.20;82.50;;;;;;4879151;29;20442;-83
2023/02/22 00:45:41;;;;;;;10.10;7.25;;;11.20;82.50;;;;;;4863417;29;20044;-83
2023/02/22 00:48:08;;;;;;;9.80;6.72;;;11.20;82.50;;;;;;4879283;29;20025;-83
2023/02/22 00:50:34;;;;;;;10.50;7.57;;;11.20;82.50;;;;;;4863421;29;20025;-83
2023/02/22 00:53:02;;;;;;;10.60;7.68;;;11.20;82.50;;;;;;4878987;29;20039;-82
2023/02/22 00:55:33;;;;;;;11.48;8.13;;;11.20;82.50;;;;;;4878861;29;20513;-84
2023/02/22 00:58:03;;;;;;;10.43;7.55;;;11.20;82.50;;;;;;4879184;29;20520;-82
2023/02/22 01:00:35;;;;;;;11.63;8.05;;;11.20;82.50;;;;;;4880195;29;20033;-83
2023/02/22 01:03:03;;;;;;;10.73;7.50;;;11.20;82.60;;;;;;4863214;29;20052;-83
2023/02/22 01:05:30;;;;;;;11.45;8.05;;;11.20;82.50;;;;;;4863509;29;20052;-83
2023/02/22 01:07:57;;;;;;;11.15;7.50;;;11.20;82.50;;;;;;4865143;29;20123;-83
2023/02/22 01:10:25;;;;;;;10.20;7.45;;;11.20;82.50;;;;;;4879712;29;20128;-83
2023/02/22 01:12:53;;;;;;;10.40;7.30;;;11.10;82.50;;;;;;4879019;29;20041;-83
2023/02/22 01:15:21;;;;;;;11.25;7.30;;;11.10;82.50;;;;;;4879874;29;20439;-83
2023/02/22 01:17:49;;;;;;;11.18;7.75;;;11.10;82.60;;;;;;4863884;29;20036;-82
2023/02/22 01:20:16;;;;;;;11.43;7.88;;;11.10;82.60;;;;;;4867457;29;20032;-82
2023/02/22 01:22:46;;;;;;;11.13;8.20;;;11.10;82.60;;;;;;4867036;29;20037;-82
2023/02/22 01:25:18;;;;;;;11.90;8.27;;;11.10;82.60;;;;;;4867412;29;20131;-82
2023/02/22 01:27:44;;;;;;;12.20;8.15;;;11.10;82.60;;;;;;4882641;29;20467;-82
2023/02/22 01:30:12;;;;;;;12.48;8.40;;;11.10;82.60;;;;;;4867566;29;20140;-82
2023/02/22 01:32:40;;;;;;;12.63;8.85;;;11.10;82.60;;;;;;4851718;29;20040;-82
2023/02/22 01:35:09;;;;;;;11.30;7.97;;;11.10;82.70;;;;;;4866949;29;20025;-82
2023/02/22 01:37:35;;;;;;;10.48;7.07;;;11.00;82.60;;;;;;4866745;29;20025;-82
2023/02/22 01:40:03;;;;;;;12.88;8.52;;;11.00;82.60;;;;;;4881862;29;20052;-82
2023/02/22 01:42:29;;;;;;;12.60;8.82;;;11.10;82.60;;;;;;4883954;29;20044;-83
2023/02/22 01:45:29;;;;;;;12.02;8.13;;;11.00;82.60;;;;;;4868148;29;20033;-83
2023/02/22 01:47:58;;;;;;;11.65;8.07;;;11.00;82.70;;;;;;4884963;29;20033;-83
2023/02/22 01:50:24;;;;;;;10.95;7.70;;;11.00;83.20;;;;;;4883004;29;20123;-82
2023/02/22 01:52:50;;;;;;;13.50;9.20;;;11.00;82.70;;;;;;4882339;29;20494;-82
2023/02/22 01:55:17;;;;;;;12.90;8.88;;;11.00;82.70;;;;;;4882541;29;20036;-83
2023/02/22 01:57:46;;;;;;;12.35;9.00;;;11.00;82.70;;;;;;4866692;29;20140;-82
2023/02/22 02:00:16;;;;;;;13.15;8.57;;;11.00;82.70;;;;;;4883099;29;20061;-83
2023/02/22 02:02:45;;;;;;;13.15;9.02;;;11.00;82.70;;;;;;4881487;29;20533;-82
2023/02/22 02:05:12;;;;;;;13.18;8.95;;;10.90;82.60;;;;;;4881718;29;20025;-83
2023/02/22 02:07:39;;;;;;;13.52;8.98;;;11.00;82.70;;;;;;4865960;29;20037;-82
2023/02/22 02:10:13;;;;;;;13.48;8.73;;;11.00;82.70;;;;;;4882629;29;20048;-83
2023/02/22 02:12:44;;;;;;;13.33;8.83;;;10.90;82.60;;;;;;4866692;29;20040;-82
2023/02/22 02:15:16;;;;;;;12.90;8.68;;;10.90;82.60;;;;;;4881204;29;20052;-83
2023/02/22 02:17:42;;;;;;;13.75;8.98;;;10.90;82.70;;;;;;4866344;29;20395;-81
2023/02/22 02:20:16;;;;;;;13.32;8.95;;;10.90;82.60;;;;;;4882086;29;20029;-82
2023/02/22 02:23:15;;;;;;;13.30;8.90;;;10.90;82.70;;;;;;4865954;29;20037;-81
2023/02/22 02:26:02;;;;;;;11.98;7.68;;;10.90;82.70;;;;;;4881933;29;20092;-83
2023/02/22 02:28:49;;;;;;;12.35;8.40;;;10.90;82.70;;;;;;4865826;29;20033;-83
2023/02/22 02:31:54;;;;;;;12.07;8.55;;;10.90;82.70;;;;;;4880093;29;20037;-82
2023/02/22 02:34:38;;;;;;;12.98;8.15;;;10.80;82.80;;;;;;4880009;29;20069;-82
2023/02/22 02:37:26;;;;;;;12.43;7.78;;;10.80;82.70;;;;;;4879453;29;20048;-82
2023/02/22 02:40:00;;;;;;;12.10;7.70;;;10.80;82.70;;;;;;4881080;29;20044;-80
2023/02/22 02:42:34;;;;;;;13.38;8.48;;;10.80;82.70;;;;;;4882044;29;20041;-83
2023/02/22 02:45:09;;;;;;;14.48;8.60;;;10.80;82.80;;;;;;4868901;29;20044;-83
2023/02/22 02:47:41;;;;;;;12.40;8.23;;;10.80;82.70;;;;;;4885582;29;20514;-82
2023/02/22 02:50:17;;;;;;;12.43;8.60;;;10.80;82.80;;;;;;4882758;29;20045;-82
2023/02/22 02:52:44;;;;;;;13.63;8.43;;;10.80;82.80;;;;;;4881494;29;20064;-82
2023/02/22 02:55:11;;;;;;;12.27;8.00;;;10.80;82.80;;;;;;4865371;29;20044;-82
2023/02/22 02:57:40;;;;;;;12.45;8.75;;;10.80;82.80;;;;;;4880794;29;20049;-83
2023/02/22 03:03:28;;;;;;;14.38;9.43;;;10.80;82.80;;;;;;4879930;29;20215;-82
2023/02/22 03:06:02;;;;;;;12.10;8.23;;;10.70;82.70;;;;;;4882397;29;20040;-82
2023/02/22 03:08:38;;;;;;;13.52;8.88;;;10.70;82.70;;;;;;4880722;29;20040;-82
2023/02/22 03:11:13;;;;;;;13.60;8.85;;;10.70;82.70;;;;;;4881174;29;20513;-82
2023/02/22 03:13:48;;;;;;;13.32;8.45;;;10.70;83.30;;;;;;4880206;29;20037;-82
2023/02/22 03:16:31;;;;;;;15.38;9.52;;;10.70;82.70;;;;;;4881127;29;20108;-82
2023/02/22 03:19:24;;;;;;;13.23;8.20;;;10.70;82.70;;;;;;4881983;29;20033;-82
2023/02/22 03:22:13;;;;;;;13.32;8.27;;;10.70;82.70;;;;;;4880289;29;20052;-82
2023/02/22 03:24:42;;;;;;;14.05;8.93;;;10.70;82.70;;;;;;4881519;29;20064;-82
2023/02/22 03:27:20;;;;;;;13.52;8.70;;;10.70;82.70;;;;;;4864909;29;20033;-83
2023/02/22 03:29:50;;;;;;;14.15;8.73;;;10.60;82.70;;;;;;4865226;29;20098;-82
2023/02/22 03:32:24;;;;;;;12.95;8.68;;;10.60;82.70;;;;;;4864861;29;20040;-82
2023/02/22 03:34:58;;;;;;;13.57;8.77;;;10.60;82.70;;;;;;4880144;29;20112;-82
2023/02/22 03:37:32;;;;;;;16.92;10.43;;;10.60;82.70;;;;;;4865776;29;20120;-82
2023/02/22 03:40:00;;;;;;;15.00;9.55;;;10.60;82.70;;;;;;4880898;29;20032;-82
2023/02/22 03:42:32;;;;;;;12.73;9.07;;;10.60;82.70;;;;;;4879989;29;20039;-82
2023/02/22 03:45:03;;;;;;;13.20;8.00;;;10.60;82.70;;;;;;4881409;29;20037;-82
2023/02/22 03:47:49;;;;;;;13.10;8.38;;;10.60;82.70;;;;;;4864576;29;20116;-82
2023/02/22 03:50:25;;;;;;;13.60;8.63;;;10.60;82.70;;;;;;4882197;29;20044;-83
2023/02/22 03:52:52;;;;;;;14.55;8.52;;;10.50;82.70;;;;;;4871366;29;20040;-82
2023/02/22 03:55:23;;;;;;;12.40;7.85;;;10.50;82.60;;;;;;4870393;29;20120;-83
2023/02/22 03:57:56;;;;;;;14.25;8.70;;;10.50;82.70;;;;;;4883003;29;20081;-82
2023/02/22 04:00:24;;;;;;;13.45;8.90;;;10.50;82.70;;;;;;4886269;29;20037;-82
2023/02/22 04:02:50;;;;;;;17.13;9.90;;;10.50;82.70;;;;;;4866878;29;20041;-82
2023/02/22 04:05:19;;;;;;;13.60;9.13;;;10.50;82.70;;;;;;4865418;29;20044;-82
2023/02/22 04:07:46;;;;;;;14.57;8.95;;;10.50;82.70;;;;;;4880399;29;20027;-82
2023/02/22 04:10:15;;;;;;;14.80;9.68;;;10.50;82.60;;;;;;4867190;29;20037;-82
2023/02/22 04:12:42;;;;;;;12.98;8.52;;;10.50;82.70;;;;;;4865580;29;20108;-83
2023/02/22 04:15:11;;;;;;;12.60;8.75;;;10.40;82.60;;;;;;4880114;29;20128;-82
2023/02/22 04:17:37;;;;;;;14.35;9.50;;;10.50;82.70;;;;;;4882873;29;20021;-82
2023/02/22 04:20:05;;;;;;;15.32;9.60;;;10.40;82.60;;;;;;4867768;29;20044;-82
2023/02/22 04:22:43;;;;;;;13.65;8.70;;;10.50;82.60;;;;;;4868527;29;20025;-82
2023/02/22 04:25:09;;;;;;;13.95;8.65;;;10.40;82.60;;;;;;4851436;29;20045;-82
2023/02/22 04:27:35;;;;;;;14.75;8.60;;;10.40;82.60;;;;;;4865060;29;20115;-82
2023/02/22 04:30:01;;;;;;;15.10;9.35;;;10.40;82.70;;;;;;4864282;29;20483;-82
2023/02/22 04:32:29;;;;;;;16.80;10.30;;;10.40;82.60;;;;;;4849797;29;20029;-83
2023/02/22 04:34:54;;;;;;;15.23;9.60;;;10.40;82.60;;;;;;4851169;29;20033;-82
2023/02/22 04:37:20;;;;;;;13.68;9.02;;;10.40;82.60;;;;;;4881759;29;20035;-82
2023/02/22 04:39:46;;;;;;;16.23;9.80;;;10.40;82.60;;;;;;4849903;29;20191;-82
2023/02/22 04:42:12;;;;;;;13.38;9.05;;;10.40;82.60;;;;;;4879344;29;20067;-82
2023/02/22 04:44:38;;;;;;;14.75;9.80;;;10.40;82.60;;;;;;4863865;29;20029;-82
2023/02/22 04:47:04;;;;;;;14.85;9.48;;;10.40;82.60;;;;;;4879636;29;20124;-82
2023/02/22 04:49:30;;;;;;;13.63;8.65;;;10.40;82.60;;;;;;4848227;29;20040;-82
2023/02/22 04:51:56;;;;;;;16.02;10.57;;;10.30;82.50;;;;;;4847907;29;20413;-82
2023/02/22 04:54:29;;;;;;;16.88;10.10;;;10.30;82.50;;;;;;4853543;29;20029;-83
2023/02/22 04:56:56;;;;;;;15.40;10.15;;;10.30;82.60;;;;;;4852767;29;20056;-82
2023/02/22 04:59:22;;;;;;;14.65;9.18;;;10.30;82.60;;;;;;4869793;29;20132;-82
2023/02/22 05:01:54;;;;;;;15.93;10.48;;;10.30;82.60;;;;;;4870349;29;20101;-82
2023/02/22 05:04:20;;;;;;;15.32;9.73;;;10.30;82.60;;;;;;4885828;29;20036;-82
2023/02/22 05:06:46;;;;;;;15.88;9.77;;;10.30;82.60;;;;;;4867325;29;20057;-82
2023/02/22 05:09:12;;;;;;;15.68;9.85;;;10.30;82.60;;;;;;4883214;29;20033;-82
2023/02/22 05:11:38;;;;;;;16.83;10.88;;;10.20;82.60;;;;;;4882480;29;20039;-82
2023/02/22 05:14:04;;;;;;;14.95;9.75;;;10.20;82.60;;;;;;4867325;29;20483;-82
2023/02/22 05:16:33;;;;;;;15.25;10.07;;;10.20;82.70;;;;;;4867274;29;20045;-82
2023/02/22 05:18:59;;;;;;;15.13;9.43;;;10.20;82.70;;;;;;4867075;29;20044;-82
2023/02/22 05:21:24;;;;;;;15.05;10.07;;;10.20;82.60;;;;;;4866837;29;20037;-82
2023/02/22 05:23:50;;;;;;;15.77;10.50;;;10.20;82.70;;;;;;4866694;29;20041;-82
2023/02/22 05:26:16;;;;;;;16.88;10.82;;;10.20;82.70;;;;;;4867007;29;20078;-82
2023/02/22 05:28:42;;;;;;;15.75;10.40;;;10.20;82.60;;;;;;4883393;29;20492;-82
2023/02/22 05:31:08;;;;;;;16.27;10.52;;;10.20;82.70;;;;;;4883585;29;20037;-82
2023/02/22 05:33:33;;;;;;;18.50;11.40;;;10.20;82.70;;;;;;4882185;29;20466;-82
2023/02/22 05:35:59;;;;;;;18.42;11.07;;;10.10;82.60;;;;;;4866574;29;20029;-82
2023/02/22 05:38:25;;;;;;;17.17;11.23;;;10.10;83.30;;;;;;4866536;29;20033;-81
2023/02/22 05:40:51;;;;;;;19.17;11.93;;;10.10;82.60;;;;;;4881968;29;20025;-81
2023/02/22 05:43:17;;;;;;;18.15;11.70;;;10.10;82.70;;;;;;4881952;29;20124;-80
2023/02/22 05:45:42;;;;;;;18.50;11.90;;;10.10;82.70;;;;;;4881771;29;20033;-82
2023/02/22 05:48:08;;;;;;;18.70;11.38;;;10.10;82.70;;;;;;4865978;29;20040;-80
2023/02/22 05:50:34;;;;;;;17.33;11.27;;;10.10;83.30;;;;;;4881700;29;20390;-80
2023/02/22 05:53:01;;;;;;;18.15;11.63;;;10.10;82.70;;;;;;4854753;29;20053;-80
2023/02/22 05:55:27;;;;;;;16.33;11.13;;;10.10;82.60;;;;;;4866322;29;20036;-80
2023/02/22 05:57:53;;;;;;;17.90;12.00;;;10.00;82.60;;;;;;4866154;29;20490;-81
2023/02/22 06:00:25;;;;;;;20.25;12.30;;;10.10;82.70;;;;;;4881273;29;20065;-81
2023/02/22 06:03:05;;;;;;;18.17;12.27;;;10.00;82.70;;;;;;4880989;29;20068;-80
2023/02/22 06:05:31;;;;;;;19.42;12.50;;;10.00;82.70;;;;;;4882344;29;20370;-85
2023/02/22 06:07:58;;;;;;;17.65;11.88;;;10.00;82.70;;;;;;4881295;29;20029;-81
2023/02/22 06:10:24;;;;;;;19.50;12.30;;;10.00;82.70;;;;;;4881771;29;20071;-81
2023/02/22 06:12:51;;;;;;;18.33;11.70;;;10.00;82.70;;;;;;4865694;29;20471;-81
2023/02/22 06:15:19;;;;;;;18.17;12.05;;;10.00;82.80;;;;;;4882531;29;20101;-81
2023/02/22 06:17:45;;;;;;;19.73;12.32;;;10.00;82.70;;;;;;4865854;29;20033;-81
2023/02/22 06:20:13;;;;;;;20.70;12.57;;;10.00;82.80;;;;;;4850583;29;20080;-83
2023/02/22 06:22:43;;;;;;;20.80;12.15;;;10.00;82.80;;;;;;4865273;29;20043;-82
2023/02/22 06:25:13;;;;;;;20.38;12.63;;;9.90;82.80;;;;;;4881463;29;20160;-81
2023/02/22 06:27:39;;;;;;;19.85;12.88;;;9.90;82.80;;;;;;4882188;29;20029;-81
2023/02/22 06:30:05;;;;;;;21.52;12.65;;;9.90;82.80;;;;;;4881187;29;20029;-81
2023/02/22 06:32:31;;;;;;;21.63;12.40;;;9.90;82.80;;;;;;4881960;29;20516;-82
2023/02/22 06:34:57;;;;;;;19.52;11.93;;;9.90;82.80;;;;;;4865927;29;20069;-81
2023/02/22 06:37:23;;;;;;;20.95;12.68;;;9.90;82.80;;;;;;4880946;29;20500;-83
2023/02/22 06:39:48;;;;;;;22.58;12.57;;;9.90;82.80;;;;;;4865647;29;20098;-82
2023/02/22 06:42:14;;;;;;;20.05;12.15;;;9.90;82.80;;;;;;4881104;29;20427;-83
2023/02/22 06:44:40;;;;;;;21.77;13.15;;;9.90;82.80;;;;;;4865671;29;20037;-82
2023/02/22 06:47:06;;;;;;;19.73;12.70;;;9.90;82.80;;;;;;4880643;29;20029;-81
2023/02/22 06:49:32;;;;;;;18.73;11.48;;;9.90;82.80;;;;;;4880586;29;20089;-80
2023/02/22 06:51:57;;;;;;;20.50;12.20;;;9.90;82.80;;;;;;4865786;29;20128;-82
2023/02/22 06:54:26;;;;;;;20.75;13.30;;;9.90;82.80;;;;;;4865241;29;20025;-82
2023/02/22 06:56:52;;;;;;;21.38;12.77;;;9.80;82.80;;;;;;4865673;29;20089;-82
2023/02/22 06:59:17;;;;;;;19.83;12.18;;;9.80;82.70;;;;;;4880594;29;20071;-82
2023/02/22 07:01:43;;;;;;;19.85;11.98;;;9.80;82.70;;;;;;4865701;29;20529;-82
2023/02/22 07:04:10;;;;;;;20.30;12.13;;;9.80;82.80;;;;;;4881411;29;20124;-81
2023/02/22 07:06:36;;;;;;;18.55;11.75;;;9.80;82.80;;;;;;4880250;29;20070;-81
2023/02/22 07:09:02;;;;;;;17.80;12.20;;;9.80;82.80;;;;;;4881316;29;20063;-81
2023/02/22 07:11:28;;;;;;;18.40;11.48;;;9.80;82.80;;;;;;4880214;29;20068;-79
2023/02/22 07:13:54;;;;;;;18.50;12.23;;;9.80;82.80;;;;;;4865386;29;20343;-81
2023/02/22 07:16:20;;;;;;;18.65;11.68;;;9.80;82.70;;;;;;4864144;29;20045;-82
2023/02/22 07:18:46;;;;;;;19.25;11.80;;;9.80;82.80;;;;;;4864415;29;20328;-81
2023/02/22 07:21:12;;;;;;;20.08;11.73;;;9.80;82.80;;;;;;4864272;29;20526;-81
2023/02/22 07:23:37;;;;;;;18.48;11.15;;;9.80;82.70;;;;;;4880036;29;20037;-81
2023/02/22 07:26:06;;;;;;;20.63;11.98;;;9.80;82.80;;;;;;4880671;29;20081;-82
2023/02/22 07:28:32;;;;;;;17.88;11.48;;;9.80;82.90;;;;;;4881384;29;20073;-82
2023/02/22 07:30:58;;;;;;;19.40;12.10;;;9.80;82.80;;;;;;4849904;29;20048;-82
2023/02/22 07:33:25;;;;;;;18.15;11.32;;;9.80;82.80;;;;;;4865569;29;20049;-81
2023/02/22 07:35:51;;;;;;;20.02;11.70;;;9.80;82.80;;;;;;4867231;29;20037;-82
2023/02/22 07:38:20;;;;;;;18.80;11.02;;;9.80;82.80;;;;;;4883519;29;20029;-81
2023/02/22 07:40:46;;;;;;;17.13;10.75;;;9.80;82.80;;;;;;4868748;29;20036;-83
2023/02/22 07:43:23;;;;;;;18.35;11.02;;;9.70;82.80;;;;;;4884579;29;20117;-82
2023/02/22 07:45:54;;;;;;;15.75;10.30;;;9.80;82.90;;;;;;4867634;29;20044;-82
2023/02/22 07:48:22;;;;;;;17.98;10.98;;;9.70;82.90;;;;;;4880256;29;20037;-82
2023/02/22 07:50:48;;;;;;;17.27;10.93;;;9.70;82.80;;;;;;4880144;29;20029;-81
2023/02/22 07:53:23;;;;;;;17.73;11.10;;;9.70;82.80;;;;;;4864280;29;20033;-82
2023/02/22 07:55:49;;;;;;;;;;;9.70;82.80;;;;;;4880096;29;20029;-82
2023/02/22 07:58:18;;;;;;;14.93;9.73;;;9.60;82.70;;;;;;4879027;29;20330;-82
2023/02/22 08:00:46;;;;;;;16.70;9.93;;;9.70;82.70;;;;;;4878873;29;20116;-81
2023/02/22 08:03:13;;;;;;;16.30;9.88;;;9.70;82.70;;;;;;4863833;29;20049;-81
2023/02/22 08:05:41;;;;;;;15.15;10.00;;;9.70;82.90;;;;;;4880709;29;20086;-80
2023/02/22 08:08:07;;;;;;;17.58;10.18;;;9.70;82.90;;;;;;4863930;29;20034;-82
2023/02/22 08:10:34;;;;;;;17.33;10.95;;;9.70;82.90;;;;;;4879640;29;20120;-83
2023/02/22 08:13:01;;;;;;;16.75;10.02;;;9.70;82.90;;;;;;4863969;29;20041;-82
2023/02/22 08:15:28;;;;;;;17.92;11.15;;;9.70;82.90;;;;;;4864666;29;20041;-83
2023/02/22 08:17:55;;;;;;;18.42;11.57;;;9.70;82.90;;;;;;4864560;29;20033;-84
2023/02/22 08:20:21;;;;;;;17.75;10.93;;;9.70;82.90;;;;;;4879946;29;20370;-82
2023/02/22 08:22:48;;;;;;;19.42;11.10;;;9.70;82.90;;;;;;4864025;29;20093;-84
2023/02/22 08:25:16;;;;;;;17.95;10.98;;;9.70;82.90;;;;;;4879458;29;20033;-84
2023/02/22 08:27:42;;;;;;;18.83;12.05;;;9.70;82.90;;;;;;4863217;29;20386;-84
2023/02/22 08:30:18;;;;;;;18.55;11.43;;;9.70;82.90;;;;;;4879132;29;20072;-82
2023/02/22 08:32:45;;;;;;;17.92;10.98;;;9.70;82.90;;;;;;4864277;29;20037;-82
2023/02/22 08:35:12;;;;;;;18.55;11.82;;;9.70;82.90;;;;;;4864383;29;20060;-82
2023/02/22 08:37:44;;;;;;;19.17;11.20;;;9.70;82.90;;;;;;4863776;29;20088;-82
2023/02/22 08:40:11;;;;;;;17.73;10.68;;;9.70;83.00;;;;;;4879231;29;20041;-82
2023/02/22 08:42:37;;;;;;;17.55;11.05;;;9.70;82.90;;;;;;4863597;29;20033;-83
2023/02/22 08:45:03;;;;;;;18.17;10.77;;;9.70;82.90;;;;;;4864161;29;20048;-82
2023/02/22 08:47:29;;;;;;;18.15;11.27;;;9.70;82.90;;;;;;4863346;29;20021;-82
2023/02/22 08:49:55;;;;;;;18.98;11.13;;;9.70;82.90;;;;;;4863272;29;20128;-82
2023/02/22 08:52:21;;;;;;;16.77;11.10;;;9.70;82.90;;;;;;4878954;29;20044;-83
2023/02/22 08:54:47;;;;;;;19.25;11.45;;;9.70;82.90;;;;;;4848037;29;20043;-82
2023/02/22 08:57:13;;;;;;;17.88;11.10;;;9.70;82.90;;;;;;4863961;29;20059;-83
2023/02/22 08:59:39;;;;;;;15.98;9.95;;;9.70;82.90;;;;;;4863535;29;20026;-82
2023/02/22 09:02:12;;;;;;;18.15;10.80;;;9.80;82.90;;;;;;4879935;29;20037;-82
2023/02/22 09:04:38;;;;;;;17.85;11.27;;;9.80;82.90;;;;;;4879299;29;20053;-82
2023/02/22 09:07:04;;;;;;;20.35;12.60;;;9.80;83.00;;;;;;4863513;29;20493;-82
2023/02/22 09:09:29;;;;;;;17.58;10.85;;;9.80;83.00;;;;;;4878713;29;20542;-83
2023/02/22 09:11:55;;;;;;;17.20;10.93;;;9.80;82.90;;;;;;4878950;29;20065;-82
2023/02/22 09:14:21;;;;;;;17.20;9.93;;;9.80;83.00;;;;;;4878756;29;20175;-82
2023/02/22 09:16:47;;;;;;;16.42;10.02;;;9.80;82.90;;;;;;4848041;29;20025;-83
2023/02/22 09:19:13;;;;;;;19.13;11.70;;;9.80;82.90;;;;;;4864009;29;20060;-83
2023/02/22 09:21:39;;;;;;;17.08;11.07;;;9.80;82.90;;;;;;4863052;29;20051;-82
2023/02/22 09:24:09;;;;;;;17.00;10.57;;;9.90;82.90;;;;;;4847800;29;20451;-82
2023/02/22 09:26:38;;;;;;;18.77;11.15;;;9.90;82.90;;;;;;4878733;29;20083;-83
2023/02/22 09:29:10;;;;;;;17.63;10.48;;;9.90;82.90;;;;;;4879793;29;20025;-83
2023/02/22 09:31:37;;;;;;;15.80;10.05;;;9.90;82.90;;;;;;4878887;29;20037;-82
2023/02/22 09:34:12;;;;;;;16.77;10.38;;;9.90;82.90;;;;;;4878707;29;20041;-83
2023/02/22 09:36:45;;;;;;;16.40;9.95;;;9.90;82.90;;;;;;4879376;29;20116;-83
2023/02/22 09:39:12;;;;;;;16.10;10.00;;;9.90;83.00;;;;;;4879494;29;20039;-81
2023/02/22 09:41:51;;;;;;;17.25;9.60;;;9.90;83.60;;;;;;4882020;29;20112;-81
2023/02/22 09:44:35;;;;;;;15.65;9.30;;;9.90;82.90;;;;;;4866499;29;20029;-82
2023/02/22 09:47:03;;;;;;;15.57;9.60;;;9.90;83.00;;;;;;4866109;29;20431;-84
2023/02/22 09:49:37;;;;;;;15.43;9.65;;;9.90;82.90;;;;;;4882185;29;20089;-83
2023/02/22 09:52:17;;;;;;;14.23;8.85;;;10.00;82.90;;;;;;4882515;29;20497;-83
2023/02/22 09:54:51;;;;;;;15.60;9.60;;;10.00;82.90;;;;;;4882535;29;20040;-83
2023/02/22 09:57:34;;;;;;;15.10;9.77;;;10.00;82.90;;;;;;4881537;29;20049;-83
2023/02/22 10:00:19;;;;;;;14.85;9.10;;;10.00;83.00;;;;;;4866719;29;20217;-84
2023/02/22 10:02:58;;;;;;;15.52;9.25;;;10.00;82.90;;;;;;4865968;29;20041;-83
2023/02/22 10:05:38;;;;;;;17.17;10.20;;;10.10;83.00;;;;;;4882337;29;20029;-83
2023/02/22 10:08:18;;;;;;;16.77;9.60;;;10.10;83.00;;;;;;4881773;29;20029;-83
2023/02/22 10:10:51;;;;;;;16.40;9.70;;;10.10;82.90;;;;;;4851402;29;20498;-83
2023/02/22 10:13:26;;;;;;;16.50;9.57;;;10.10;82.80;;;;;;4882265;29;20033;-83
2023/02/22 10:16:27;;;;;;;14.32;9.52;;;10.10;82.80;;;;;;4881787;29;20347;-83
2023/02/22 10:19:30;;;;;;;14.15;9.05;;;10.10;82.90;;;;;;4866364;29;20497;-83
2023/02/22 10:22:11;;;;;;;14.60;9.18;;;10.20;83.20;;;;;;4882874;29;20051;-83
2023/02/22 10:24:50;;;;;;;15.25;8.85;;;10.20;82.80;;;;;;4882562;29;20415;-83
2023/02/22 10:27:26;;;;;;;12.73;7.95;;;10.20;82.80;;;;;;4866556;29;20033;-81
2023/02/22 10:29:58;;;;;;;14.75;9.35;;;10.20;82.80;;;;;;4881333;29;20461;-83
2023/02/22 10:32:30;;;;;;;15.38;9.18;;;10.30;82.80;;;;;;4881429;29;20056;-83
2023/02/22 10:34:58;;;;;;;14.52;9.18;;;10.30;82.80;;;;;;4881521;29;20037;-83
2023/02/22 10:37:28;;;;;;;14.35;8.63;;;10.30;82.70;;;;;;4865737;29;20040;-82
2023/02/22 10:40:12;;;;;;;14.38;9.15;;;10.30;82.70;;;;;;4881059;29;20033;-83
2023/02/22 10:42:38;;;;;;;15.68;9.23;;;10.40;82.80;;;;;;4882624;29;20172;-83
2023/02/22 10:45:17;;;;;;;16.05;9.93;;;10.40;82.60;;;;;;4865677;29;20069;-83
2023/02/22 10:47:43;;;;;;;14.80;8.88;;;10.40;82.60;;;;;;4881484;29;20101;-83
2023/02/22 10:50:13;;;;;;;14.15;8.50;;;10.50;82.60;;;;;;4881679;29;20438;-83
2023/02/22 10:52:39;;;;;;;15.23;9.20;;;10.50;82.60;;;;;;4882330;29;20084;-83
2023/02/22 10:55:11;;;;;;;15.40;9.35;;;10.50;82.60;;;;;;4881283;29;20124;-83
2023/02/22 10:57:37;;;;;;;13.25;8.63;;;10.50;82.50;;;;;;4866413;29;20045;-83
2023/02/22 11:00:36;;;;;;;14.48;8.98;;;10.60;82.60;;;;;;4865811;29;20068;-82
2023/02/22 11:03:22;;;;;;;15.27;9.68;;;10.60;82.60;;;;;;4880987;29;20045;-83
2023/02/22 11:05:49;;;;;;;13.55;8.82;;;10.70;82.60;;;;;;4881981;29;20025;-83
2023/02/22 11:08:15;;;;;;;14.80;9.93;;;10.70;82.50;;;;;;4881817;29;20029;-83
2023/02/22 11:10:42;;;;;;;15.85;9.52;;;10.70;82.50;;;;;;4865432;29;20040;-83
2023/02/22 11:13:22;;;;;;;15.95;9.82;;;10.80;82.50;;;;;;4865123;29;20478;-82
2023/02/22 11:15:49;;;;;;;13.88;9.23;;;10.80;82.50;;;;;;4880874;29;20526;-83
2023/02/22 11:18:28;;;;;;;16.05;9.93;;;10.80;82.40;;;;;;4880491;29;20454;-83
2023/02/22 11:21:10;;;;;;;15.45;9.85;;;10.90;82.50;;;;;;4865015;29;20033;-82
2023/02/22 11:23:38;;;;;;;15.23;10.25;;;10.90;82.40;;;;;;4881453;29;20431;-82
2023/02/22 11:26:10;;;;;;;15.80;9.98;;;10.90;82.30;;;;;;4881059;29;20029;-83
2023/02/22 11:28:47;;;;;;;14.95;8.80;;;11.00;82.30;;;;;;4866864;29;20029;-82
2023/02/22 11:31:16;;;;;;;13.82;9.40;;;11.00;82.30;;;;;;4881168;29;20040;-82
2023/02/22 11:34:02;;;;;;;15.73;9.90;;;11.00;82.20;;;;;;4864809;29;20031;-82
2023/02/22 11:36:39;;;;;;;15.85;9.00;;;11.10;82.30;;;;;;4881794;29;20041;-82
2023/02/22 11:39:23;;;;;;;16.80;9.90;;;11.10;82.30;;;;;;4865188;29;20484;-82
2023/02/22 11:41:49;;;;;;;16.52;10.18;;;11.10;82.30;;;;;;4880581;29;20445;-83
2023/02/22 11:44:30;;;;;;;16.83;10.07;;;11.10;82.20;;;;;;4881094;29;20029;-82
2023/02/22 11:47:01;;;;;;;14.10;9.18;;;11.20;82.30;;;;;;4879690;29;20028;-82
2023/02/22 11:49:38;;;;;;;13.93;9.68;;;11.20;82.20;;;;;;4864246;29;20040;-83
2023/02/22 11:52:33;;;;;;;14.82;9.52;;;11.30;82.20;;;;;;4879820;29;20037;-82
2023/02/22 11:55:26;;;;;;;14.65;9.48;;;11.30;82.20;;;;;;4879720;29;20033;-82
2023/02/22 11:58:27;;;;;;;13.25;8.25;;;11.30;82.20;;;;;;4879404;29;20474;-82
2023/02/22 12:01:37;;;;;;;12.10;8.60;;;11.40;82.20;;;;;;4879829;29;20033;-82
2023/02/22 12:04:40;;;;;;;13.80;8.45;;;11.40;82.10;;;;;;4862896;29;20041;-85
2023/02/22 12:07:25;;;;;;;15.57;9.43;;;11.40;82.20;;;;;;4880258;29;20071;-83
2023/02/22 12:10:18;;;;;;;14.57;9.27;;;11.50;82.20;;;;;;4879881;29;20036;-84
2023/02/22 12:12:52;;;;;;;14.00;9.02;;;11.50;82.30;;;;;;4879774;29;20037;-84
2023/02/22 12:15:36;;;;;;;12.65;8.05;;;11.50;82.20;;;;;;4879935;29;20044;-83
2023/02/22 12:18:20;;;;;;;13.52;9.05;;;11.50;82.20;;;;;;4879974;29;20033;-84
2023/02/22 12:21:00;;;;;;;13.30;8.73;;;11.60;82.20;;;;;;4879378;29;20036;-82
2023/02/22 12:23:28;;;;;;;13.48;9.13;;;11.70;82.30;;;;;;4879051;29;20040;-83
2023/02/22 12:26:04;;;;;;;14.82;9.30;;;11.70;82.20;;;;;;4864946;29;20025;-86
2023/02/22 12:28:38;;;;;;;13.77;9.18;;;11.70;82.30;;;;;;4864440;29;20040;-85
2023/02/22 12:31:32;;;;;;;15.00;9.73;;;11.70;82.30;;;;;;4880354;29;20029;-86
2023/02/22 12:34:20;;;;;;;14.73;9.32;;;11.80;82.30;;;;;;4880382;29;20125;-85
2023/02/22 12:37:07;;;;;;;13.70;9.57;;;11.80;82.20;;;;;;4880509;29;20029;-87
2023/02/22 12:39:51;;;;;;;14.35;8.73;;;11.80;82.20;;;;;;4864235;29;20474;-84
2023/02/22 12:42:23;;;;;;;12.73;8.77;;;11.90;82.20;;;;;;4880164;29;20048;-85
2023/02/22 12:44:59;;;;;;;13.18;9.35;;;11.90;82.20;;;;;;4880681;29;20029;-85
2023/02/22 12:47:33;;;;;;;13.43;9.05;;;11.90;82.20;;;;;;4879524;29;20081;-83
2023/02/22 12:50:06;;;;;;;12.88;9.05;;;12.00;82.30;;;;;;4864707;29;20033;-81
2023/02/22 12:53:02;;;;;;;12.55;8.48;;;12.00;82.20;;;;;;4878442;29;20161;-82
2023/02/22 12:55:44;;;;;;;13.32;8.70;;;12.10;82.30;;;;;;4878960;29;20044;-80
2023/02/22 12:58:26;;;;;;;11.90;8.27;;;12.10;82.20;;;;;;4879091;29;20056;-82
2023/02/22 13:01:02;;;;;;;13.95;9.32;;;12.10;82.20;;;;;;4878338;29;20072;-81
2023/02/22 13:03:38;;;;;;;13.93;8.63;;;12.20;82.30;;;;;;4878438;29;20111;-81